Time;durP1;ratioP1;P1;durP2;ratioP2;P2;SDS_P1;SDS_P2;PMS_P1;PMS_P2;Temp;Humidity;BMP_temperature;BMP_pressure;BME280_temperature;BME280_humidity;BME280_pressure;Samples;Min_cycle;Max_cycle;Signal;HPM_P1;HPM_P2
2022/07/09 00:00:47;;;;;;;7.57;4.22;;;;;;;21.51;75.35;99732.19;5088082;28;20035;-33
2022/07/09 00:03:13;;;;;;;9.23;4.47;;;;;;;21.35;75.87;99734.38;5087917;28;20024;-28
2022/07/09 00:05:38;;;;;;;6.30;4.68;;;;;;;21.27;76.82;99752.13;5087796;28;20470;-28
2022/07/09 00:08:04;;;;;;;7.45;4.78;;;;;;;21.19;77.24;99736.56;5069607;28;20035;-30
2022/07/09 00:10:30;;;;;;;8.20;5.47;;;;;;;20.91;78.16;99729.44;5087753;28;20028;-32
2022/07/09 00:12:56;;;;;;;6.70;4.93;;;;;;;20.99;77.89;99724.13;5087784;28;20031;-32
2022/07/09 00:15:21;;;;;;;6.80;4.43;;;;;;;21.04;77.77;99728.66;5068878;28;20040;-34
2022/07/09 00:17:47;;;;;;;7.38;5.03;;;;;;;21.06;77.66;99723.75;5087745;28;20036;-31
2022/07/09 00:20:12;;;;;;;8.02;4.68;;;;;;;21.19;76.76;99727.63;5087703;28;20447;-31
2022/07/09 00:22:38;;;;;;;9.65;5.30;;;;;;;21.11;77.33;99710.13;5087596;28;20028;-31
2022/07/09 00:25:04;;;;;;;7.20;5.32;;;;;;;21.14;77.15;99719.56;5087358;28;20028;-29
2022/07/09 00:27:29;;;;;;;5.95;4.43;;;;;;;21.21;77.09;99718.06;5087234;28;20062;-28
2022/07/09 00:29:55;;;;;;;10.35;4.78;;;;;;;21.31;76.40;99714.38;5087275;28;20438;-30
2022/07/09 00:32:20;;;;;;;6.45;4.80;;;;;;;21.28;75.88;99699.50;5087430;28;20706;-29
2022/07/09 00:34:46;;;;;;;6.72;4.63;;;;;;;21.28;76.54;99704.91;5087593;28;20028;-28
2022/07/09 00:37:12;;;;;;;7.00;5.40;;;;;;;21.09;77.44;99696.06;5069151;28;20420;-31
2022/07/09 00:39:38;;;;;;;8.07;5.30;;;;;;;20.97;78.22;99709.28;5069098;28;20043;-28
2022/07/09 00:42:04;;;;;;;8.35;5.47;;;;;;;21.03;78.05;99692.63;5087180;28;20056;-28
2022/07/09 00:44:30;;;;;;;7.93;5.53;;;;;;;21.17;77.90;99703.50;5068940;28;20024;-34
2022/07/09 00:46:55;;;;;;;8.32;5.93;;;;;;;21.25;77.22;99700.09;5087016;28;20032;-30
2022/07/09 00:49:21;;;;;;;6.93;5.22;;;;;;;21.07;77.69;99682.78;5087033;28;20031;-29
2022/07/09 00:51:47;;;;;;;8.43;6.00;;;;;;;21.27;77.54;99708.75;5087397;28;20032;-29
2022/07/09 00:54:13;;;;;;;8.85;5.35;;;;;;;21.27;76.97;99705.22;5068327;28;20032;-33
2022/07/09 00:56:39;;;;;;;7.72;5.20;;;;;;;21.13;76.96;99686.22;5068963;28;20030;-31
2022/07/09 00:59:09;;;;;;;7.78;5.47;;;;;;;21.23;78.03;99694.19;5068592;28;20050;-38
2022/07/09 01:01:36;;;;;;;7.22;5.50;;;;;;;21.24;77.92;99698.47;5087141;28;20064;-33
2022/07/09 01:04:01;;;;;;;7.18;5.60;;;;;;;21.30;77.53;99692.97;5087120;28;20031;-30
2022/07/09 01:06:26;;;;;;;10.52;6.00;;;;;;;21.06;78.60;99683.09;5087100;28;20463;-30
2022/07/09 01:08:52;;;;;;;12.73;6.20;;;;;;;21.10;78.69;99686.00;5086773;28;20085;-30
2022/07/09 01:11:17;;;;;;;8.82;5.60;;;;;;;21.32;78.12;99693.47;5086864;28;20032;-32
2022/07/09 01:13:43;;;;;;;7.57;5.45;;;;;;;21.40;77.45;99703.63;5086629;28;20017;-31
2022/07/09 01:16:14;;;;;;;8.38;5.28;;;;;;;21.40;77.42;99690.06;5086699;28;20032;-29
2022/07/09 01:18:39;;;;;;;8.63;6.30;;;;;;;21.23;77.52;99686.03;5069006;28;20032;-28
2022/07/09 01:21:05;;;;;;;9.57;6.10;;;;;;;20.92;79.00;99684.94;5087211;28;20035;-35
2022/07/09 01:23:31;;;;;;;7.32;5.78;;;;;;;20.78;79.43;99685.72;5086760;28;20035;-35
2022/07/09 01:25:57;;;;;;;6.55;5.32;;;;;;;20.86;78.77;99685.06;5086816;28;20032;-29
2022/07/09 01:28:23;;;;;;;7.32;5.53;;;;;;;20.76;79.08;99690.63;5068344;28;20032;-30
2022/07/09 01:30:48;;;;;;;8.15;5.28;;;;;;;20.66;79.05;99696.22;5086956;28;20036;-30
2022/07/09 01:33:14;;;;;;;7.72;5.53;;;;;;;20.36;79.88;99682.00;5086864;28;20021;-28
2022/07/09 01:35:39;;;;;;;7.82;5.40;;;;;;;20.50;79.27;99684.78;5086660;28;20103;-28
2022/07/09 01:38:05;;;;;;;6.82;5.60;;;;;;;20.61;79.50;99685.44;5051845;28;20025;-31
2022/07/09 01:40:30;;;;;;;6.97;4.82;;;;;;;20.74;80.16;99702.84;5086655;28;20827;-31
2022/07/09 01:42:56;;;;;;;7.43;5.13;;;;;;;20.47;79.33;99690.78;5068086;28;20024;-30
2022/07/09 01:45:22;;;;;;;8.35;5.28;;;;;;;20.68;78.47;99680.47;5086623;28;20030;-35
2022/07/09 01:47:47;;;;;;;6.95;5.25;;;;;;;20.66;78.40;99688.09;5086611;28;20094;-28
2022/07/09 01:50:13;;;;;;;8.60;5.30;;;;;;;20.82;78.59;99708.44;5086348;28;20024;-28
2022/07/09 01:52:39;;;;;;;7.95;5.55;;;;;;;20.71;78.18;99693.41;5086460;28;20111;-29
2022/07/09 01:55:05;;;;;;;8.48;5.53;;;;;;;20.91;77.30;99695.00;5068235;28;20031;-32
2022/07/09 01:57:31;;;;;;;6.72;5.38;;;;;;;20.87;78.91;99716.47;5067923;28;20061;-30
2022/07/09 01:59:56;;;;;;;6.68;5.07;;;;;;;20.80;78.48;99705.22;5068335;28;20032;-28
2022/07/09 02:02:22;;;;;;;9.00;5.90;;;;;;;20.80;78.44;99678.09;5086751;28;20096;-31
2022/07/09 02:04:47;;;;;;;7.55;5.72;;;;;;;20.98;78.27;99686.47;5088574;28;20082;-28
2022/07/09 02:07:14;;;;;;;6.95;5.32;;;;;;;20.97;78.03;99684.88;5090486;28;20024;-28
2022/07/09 02:09:40;;;;;;;8.50;5.60;;;;;;;21.04;76.54;99698.84;5089887;28;20032;-30
2022/07/09 02:12:06;;;;;;;7.32;5.65;;;;;;;20.91;78.49;99703.13;5071713;28;20158;-29
2022/07/09 02:14:32;;;;;;;6.55;5.13;;;;;;;20.62;77.45;99681.66;5071695;28;20027;-31
2022/07/09 02:16:58;;;;;;;6.75;5.30;;;;;;;20.83;77.07;99704.59;5089985;28;20028;-30
2022/07/09 02:19:23;;;;;;;7.25;5.97;;;;;;;20.62;77.06;99689.78;5089583;28;20480;-27
2022/07/09 02:21:49;;;;;;;9.25;5.28;;;;;;;20.56;77.89;99677.38;5090232;28;20036;-29
2022/07/09 02:24:14;;;;;;;7.20;5.30;;;;;;;20.50;77.67;99690.19;5089873;28;20145;-33
2022/07/09 02:26:40;;;;;;;8.15;5.18;;;;;;;20.28;78.48;99675.34;5071383;28;20028;-29
2022/07/09 02:29:05;;;;;;;7.25;5.25;;;;;;;20.30;79.18;99685.88;5089982;28;20035;-31
2022/07/09 02:31:31;;;;;;;9.02;5.75;;;;;;;20.06;79.82;99696.75;5089512;28;20032;-29
2022/07/09 02:33:57;;;;;;;7.72;5.55;;;;;;;19.78;81.29;99696.59;5089946;28;20760;-28
2022/07/09 02:36:22;;;;;;;9.18;5.78;;;;;;;19.71;81.68;99684.50;5089690;28;20384;-28
2022/07/09 02:38:48;;;;;;;8.25;5.60;;;;;;;19.80;81.72;99697.09;5089823;28;20744;-28
2022/07/09 02:41:13;;;;;;;8.63;5.80;;;;;;;19.82;82.13;99686.00;5089304;28;20051;-30
2022/07/09 02:43:42;;;;;;;14.48;6.25;;;;;;;20.12;82.20;99679.34;5089224;28;20121;-29
2022/07/09 02:46:08;;;;;;;8.63;5.63;;;;;;;20.03;82.32;99692.75;5071214;28;20074;-31
2022/07/09 02:48:33;;;;;;;7.05;5.57;;;;;;;20.37;81.80;99704.47;5089582;28;20048;-29
2022/07/09 02:51:00;;;;;;;9.07;6.05;;;;;;;20.22;80.23;99694.66;5089666;28;20035;-29
2022/07/09 02:53:26;;;;;;;8.40;5.13;;;;;;;20.34;80.07;99705.84;5070961;28;20020;-28
2022/07/09 02:55:51;;;;;;;9.73;6.22;;;;;;;20.64;80.16;99701.13;5089343;28;20051;-31
2022/07/09 02:58:16;;;;;;;6.95;5.68;;;;;;;20.87;76.48;99694.78;5089292;28;20051;-28
2022/07/09 03:00:42;;;;;;;6.20;5.00;;;;;;;20.54;77.31;99691.22;5089340;28;20032;-28
2022/07/09 03:03:08;;;;;;;8.35;5.75;;;;;;;20.22;79.18;99705.50;5089056;28;20063;-31
2022/07/09 03:05:34;;;;;;;7.80;5.90;;;;;;;19.97;80.60;99710.13;5088898;28;20552;-30
2022/07/09 03:08:00;;;;;;;9.27;5.97;;;;;;;19.84;81.98;99705.44;5070666;28;20051;-29
2022/07/09 03:10:26;;;;;;;8.98;6.10;;;;;;;20.16;80.43;99703.94;5070375;28;20581;-33
2022/07/09 03:12:51;;;;;;;7.32;6.03;;;;;;;20.39;81.85;99703.09;5070778;28;20031;-30
2022/07/09 03:15:17;;;;;;;8.25;5.32;;;;;;;21.09;79.34;99706.91;5088274;28;20043;-33
2022/07/09 03:17:44;;;;;;;9.73;6.60;;;;;;;21.60;76.63;99710.63;5088575;28;20032;-33
2022/07/09 03:20:10;;;;;;;10.38;7.10;;;;;;;21.32;76.87;99691.56;5070410;28;20039;-27
2022/07/09 03:22:37;;;;;;;11.73;6.80;;;;;;;21.34;75.13;99712.97;5070284;28;20028;-32
2022/07/09 03:25:03;;;;;;;11.88;6.55;;;;;;;21.01;76.85;99704.88;5070202;28;20056;-29
2022/07/09 03:27:29;;;;;;;9.00;6.57;;;;;;;20.36;79.22;99683.91;5070010;28;20032;-29
2022/07/09 03:29:55;;;;;;;9.73;6.65;;;;;;;20.14;80.42;99679.06;5088603;28;20114;-29
2022/07/09 03:32:20;;;;;;;9.82;6.35;;;;;;;19.94;81.98;99688.25;5088491;28;20865;-29
2022/07/09 03:34:45;;;;;;;13.38;7.35;;;;;;;19.84;83.53;99672.97;5088534;28;20472;-29
2022/07/09 03:37:11;;;;;;;12.48;7.13;;;;;;;20.23;83.09;99690.88;5088204;28;20458;-31
2022/07/09 03:39:36;;;;;;;8.55;6.13;;;;;;;20.36;81.15;99673.88;5087715;28;20503;-29
2022/07/09 03:42:02;;;;;;;7.38;5.82;;;;;;;20.82;79.94;99688.63;5088095;28;20055;-29
2022/07/09 03:44:28;;;;;;;6.85;5.55;;;;;;;20.99;78.51;99682.69;5053456;28;20490;-28
2022/07/09 03:46:53;;;;;;;8.55;6.13;;;;;;;21.00;78.35;99670.72;5088298;28;20050;-29
2022/07/09 03:49:18;;;;;;;9.45;6.30;;;;;;;21.20;76.14;99694.75;5069626;28;20027;-28
2022/07/09 03:51:44;;;;;;;11.45;6.65;;;;;;;21.07;76.70;99695.53;5088221;28;20036;-29
2022/07/09 03:54:10;;;;;;;12.10;6.85;;;;;;;20.82;77.37;99694.88;5088017;28;20024;-31
2022/07/09 03:56:35;;;;;;;10.38;6.68;;;;;;;20.33;79.39;99682.59;5088245;28;20032;-29
2022/07/09 03:59:01;;;;;;;9.30;6.82;;;;;;;20.30;80.33;99695.91;5069877;28;20032;-29
2022/07/09 04:01:26;;;;;;;8.30;6.00;;;;;;;20.16;81.33;99695.81;5069427;28;20107;-32
2022/07/09 04:03:52;;;;;;;10.07;6.80;;;;;;;20.52;79.74;99692.63;5088100;28;20036;-32
2022/07/09 04:06:17;;;;;;;9.45;6.57;;;;;;;20.33;80.70;99685.31;5087943;28;20036;-28
2022/07/09 04:08:43;;;;;;;10.93;7.00;;;;;;;20.72;79.41;99703.16;5087706;28;20036;-30
2022/07/09 04:11:09;;;;;;;8.25;6.20;;;;;;;20.99;78.27;99704.38;5069699;28;20110;-28
2022/07/09 04:13:34;;;;;;;8.73;6.78;;;;;;;21.03;78.21;99694.53;5087816;28;20061;-28
2022/07/09 04:16:00;;;;;;;9.30;6.90;;;;;;;20.81;78.28;99695.97;5069574;28;20044;-31
2022/07/09 04:18:25;;;;;;;8.90;6.82;;;;;;;20.53;79.87;99683.38;5087827;28;20016;-28
2022/07/09 04:20:51;;;;;;;9.77;6.80;;;;;;;20.47;80.93;99694.31;5069300;28;20035;-29
2022/07/09 04:23:16;;;;;;;10.20;6.85;;;;;;;20.51;81.02;99694.50;5087431;28;20024;-28
2022/07/09 04:25:42;;;;;;;8.38;7.10;;;;;;;20.43;81.05;99685.16;5069216;28;20042;-31
2022/07/09 04:28:07;;;;;;;9.48;6.43;;;;;;;20.34;81.98;99695.03;5087334;28;20032;-30
2022/07/09 04:30:33;;;;;;;8.27;6.15;;;;;;;20.43;81.54;99692.47;5087344;28;20401;-29
2022/07/09 04:33:00;;;;;;;8.48;6.30;;;;;;;20.51;80.98;99686.38;5087445;28;20024;-30
2022/07/09 04:35:26;;;;;;;8.27;5.93;;;;;;;20.78;80.36;99690.31;5087216;28;20024;-29
2022/07/09 04:37:51;;;;;;;8.95;5.97;;;;;;;20.85;79.86;99690.75;5087604;28;20054;-28
2022/07/09 04:40:17;;;;;;;9.90;6.03;;;;;;;20.82;80.28;99689.47;5068853;28;20039;-29
2022/07/09 04:42:42;;;;;;;7.68;6.10;;;;;;;20.82;79.13;99662.34;5087444;28;20050;-29
2022/07/09 04:45:08;;;;;;;7.85;5.88;;;;;;;20.92;79.53;99691.16;5087190;28;20032;-32
2022/07/09 04:47:33;;;;;;;8.15;6.25;;;;;;;20.92;78.88;99680.31;5087059;28;20107;-28
2022/07/09 04:49:59;;;;;;;7.38;5.80;;;;;;;20.90;79.85;99685.25;5087119;28;20020;-28
2022/07/09 04:52:26;;;;;;;7.78;6.22;;;;;;;21.19;78.14;99689.66;5087399;28;20036;-29
2022/07/09 04:54:52;;;;;;;9.02;6.07;;;;;;;21.41;77.15;99697.09;5087035;28;20094;-32
2022/07/09 04:57:18;;;;;;;6.72;5.30;;;;;;;21.50;76.19;99687.19;5087193;28;20073;-35
2022/07/09 04:59:43;;;;;;;8.95;5.00;;;;;;;21.44;75.65;99675.63;5087172;28;20514;-31
2022/07/09 05:02:08;;;;;;;8.90;6.15;;;;;;;21.59;76.69;99700.88;5087195;28;20024;-28
2022/07/09 05:04:34;;;;;;;7.53;5.30;;;;;;;21.45;76.42;99695.41;5086957;28;20419;-31
2022/07/09 05:06:59;;;;;;;7.22;5.38;;;;;;;21.44;76.09;99682.97;5086710;28;20024;-29
2022/07/09 05:09:25;;;;;;;9.10;5.85;;;;;;;21.34;76.86;99675.00;5086618;28;20027;-31
2022/07/09 05:11:50;;;;;;;6.40;5.20;;;;;;;21.35;76.12;99665.75;5087272;28;20531;-28
2022/07/09 05:14:16;;;;;;;8.00;5.63;;;;;;;21.64;75.83;99688.00;5087154;28;20024;-30
2022/07/09 05:16:44;;;;;;;12.48;5.72;;;;;;;21.75;75.13;99679.66;5086807;28;20024;-30
2022/07/09 05:19:13;;;;;;;7.20;5.25;;;;;;;21.75;74.40;99680.44;5087020;28;20032;-28
2022/07/09 05:21:41;;;;;;;11.10;5.85;;;;;;;21.81;75.23;99675.72;5068203;28;20051;-31
2022/07/09 05:24:07;;;;;;;6.65;4.68;;;;;;;21.99;74.30;99696.53;5068721;28;20097;-30
2022/07/09 05:26:36;;;;;;;7.50;5.13;;;;;;;22.07;74.55;99695.81;5068520;28;20049;-29
2022/07/09 05:29:03;;;;;;;7.50;5.30;;;;;;;21.91;74.48;99661.94;5086754;28;20538;-31
2022/07/09 05:31:29;;;;;;;6.13;5.00;;;;;;;22.14;73.47;99689.16;5068286;28;20065;-33
2022/07/09 05:33:54;;;;;;;6.68;5.18;;;;;;;22.49;73.00;99697.63;5086714;28;20028;-29
2022/07/09 05:36:19;;;;;;;10.20;5.28;;;;;;;22.40;72.56;99695.66;5068059;28;20105;-29
2022/07/09 05:38:47;;;;;;;8.00;5.20;;;;;;;22.38;72.46;99681.56;5087231;28;20028;-29
2022/07/09 05:41:14;;;;;;;7.35;5.00;;;;;;;22.42;71.78;99695.34;5068670;28;20048;-28
2022/07/09 05:43:39;;;;;;;8.80;5.57;;;;;;;22.37;71.37;99700.88;5070171;28;20036;-29
2022/07/09 05:46:05;;;;;;;7.85;5.78;;;;;;;22.51;70.83;99706.28;5070444;28;20017;-31
2022/07/09 05:48:31;;;;;;;8.70;5.95;;;;;;;22.70;70.15;99692.50;5070081;28;20086;-28
2022/07/09 05:50:56;;;;;;;6.40;5.60;;;;;;;22.78;70.60;99694.50;5068662;28;20516;-28
2022/07/09 05:53:22;;;;;;;8.93;6.15;;;;;;;23.09;68.92;99688.31;5070061;28;20154;-29
2022/07/09 05:55:47;;;;;;;8.77;6.55;;;;;;;23.07;69.13;99688.66;5070231;28;20040;-31
2022/07/09 05:58:13;;;;;;;7.82;6.68;;;;;;;23.18;68.42;99673.66;5068752;28;20036;-32
2022/07/09 06:00:38;;;;;;;8.60;7.50;;;;;;;23.29;68.46;99687.78;5070002;28;20063;-32
2022/07/09 06:03:04;;;;;;;8.65;6.97;;;;;;;23.42;67.21;99692.34;5068682;28;20071;-28
2022/07/09 06:05:29;;;;;;;8.40;7.05;;;;;;;23.19;66.61;99688.03;5069490;28;20484;-33
2022/07/09 06:07:55;;;;;;;7.90;6.57;;;;;;;22.72;67.28;99674.81;5070263;28;20466;-33
2022/07/09 06:10:22;;;;;;;9.27;6.47;;;;;;;22.51;68.06;99666.31;5068609;28;20029;-30
2022/07/09 06:12:47;;;;;;;7.10;5.68;;;;;;;22.72;67.36;99682.97;5068663;28;20028;-30
2022/07/09 06:15:13;;;;;;;8.73;6.25;;;;;;;22.66;67.79;99685.00;5069712;28;20067;-31
2022/07/09 06:17:39;;;;;;;8.05;6.03;;;;;;;22.77;68.69;99674.66;5069612;28;20029;-30
2022/07/09 06:20:05;;;;;;;6.88;5.78;;;;;;;22.97;67.16;99680.72;5069826;28;20071;-28
2022/07/09 06:22:31;;;;;;;7.85;5.88;;;;;;;23.12;69.04;99677.63;5068447;28;20093;-30
2022/07/09 06:24:56;;;;;;;6.68;5.30;;;;;;;23.02;66.68;99675.16;5069594;28;20155;-27
2022/07/09 06:27:22;;;;;;;6.05;5.45;;;;;;;23.12;67.99;99690.44;5069546;28;20036;-28
2022/07/09 06:29:47;;;;;;;6.70;5.75;;;;;;;23.11;67.57;99673.31;5069490;28;20028;-28
2022/07/09 06:32:13;;;;;;;8.63;5.65;;;;;;;23.37;66.43;99673.41;5069524;28;20059;-28
2022/07/09 06:34:38;;;;;;;7.20;4.97;;;;;;;23.33;66.46;99680.59;5069447;28;20032;-30
2022/07/09 06:37:04;;;;;;;5.60;4.97;;;;;;;23.49;65.04;99672.81;5067883;28;20025;-28
2022/07/09 06:39:45;;;;;;;7.03;5.28;;;;;;;23.37;66.17;99678.84;5067846;28;20127;-28
2022/07/09 06:42:11;;;;;;;6.40;4.88;;;;;;;23.21;66.30;99643.13;5084984;28;20530;-31
2022/07/09 06:44:38;;;;;;;8.35;5.55;;;;;;;23.11;66.27;99637.94;5071273;28;20040;-28
2022/07/09 06:47:04;;;;;;;7.20;4.95;;;;;;;23.31;65.93;99643.94;5071075;28;20036;-29
2022/07/09 06:49:30;;;;;;;7.78;4.88;;;;;;;23.43;64.84;99665.91;5070925;28;20524;-29
2022/07/09 06:51:56;;;;;;;6.65;4.95;;;;;;;23.37;65.11;99662.53;5069989;28;20024;-32
2022/07/09 06:54:21;;;;;;;7.45;5.35;;;;;;;23.35;65.16;99653.06;5089378;28;20036;-28
2022/07/09 06:56:47;;;;;;;7.88;5.18;;;;;;;23.36;64.90;99654.69;5089385;28;20545;-31
2022/07/09 06:59:12;;;;;;;5.95;4.85;;;;;;;23.52;65.44;99664.03;5071054;28;20415;-28
2022/07/09 07:01:39;;;;;;;6.78;4.72;;;;;;;23.52;63.91;99658.59;5088728;28;20035;-28
2022/07/09 07:04:04;;;;;;;6.00;4.80;;;;;;;23.39;63.80;99652.13;5070968;28;20066;-28
2022/07/09 07:06:30;;;;;;;5.88;4.13;;;;;;;23.35;63.88;99636.75;5089434;28;20803;-32
2022/07/09 07:08:55;;;;;;;8.68;5.15;;;;;;;23.47;64.94;99666.88;5089099;28;20043;-29
2022/07/09 07:11:20;;;;;;;6.70;4.55;;;;;;;23.63;64.72;99654.44;5088897;28;20031;-28
2022/07/09 07:13:46;;;;;;;8.18;4.53;;;;;;;23.80;64.90;99647.47;5070793;28;20032;-30
2022/07/09 07:16:12;;;;;;;6.15;4.28;;;;;;;23.54;64.52;99645.47;5088741;28;20020;-28
2022/07/09 07:18:37;;;;;;;8.73;4.35;;;;;;;23.72;64.55;99651.78;5070687;28;20024;-28
2022/07/09 07:21:03;;;;;;;6.53;4.28;;;;;;;23.79;63.30;99662.22;5088775;28;20538;-28
2022/07/09 07:23:31;;;;;;;7.18;4.60;;;;;;;23.60;64.27;99654.28;5088801;28;20473;-29
2022/07/09 07:25:57;;;;;;;6.63;4.35;;;;;;;23.67;64.82;99660.88;5089149;28;20031;-29
2022/07/09 07:28:23;;;;;;;6.90;4.43;;;;;;;23.73;63.74;99663.47;5070412;28;20028;-30
2022/07/09 07:30:48;;;;;;;7.90;3.95;;;;;;;23.84;64.13;99657.44;5088484;28;20031;-29
2022/07/09 07:33:14;;;;;;;7.28;4.80;;;;;;;23.78;63.90;99655.97;5088646;28;20047;-32
2022/07/09 07:35:39;;;;;;;7.05;4.70;;;;;;;23.83;64.32;99657.75;5088384;28;20460;-28
2022/07/09 07:38:05;;;;;;;7.15;4.70;;;;;;;23.71;63.74;99657.53;5088472;28;20544;-31
2022/07/09 07:40:30;;;;;;;6.72;4.30;;;;;;;23.89;63.44;99658.41;5088452;28;20024;-28
2022/07/09 07:42:56;;;;;;;7.45;4.63;;;;;;;23.53;63.29;99643.84;5069947;28;20040;-30
2022/07/09 07:45:21;;;;;;;8.18;4.80;;;;;;;23.74;63.76;99659.59;5088010;28;20411;-31
2022/07/09 07:47:47;;;;;;;7.82;4.72;;;;;;;23.77;63.87;99664.47;5088072;28;20047;-36
2022/07/09 07:50:12;;;;;;;6.30;4.53;;;;;;;23.84;62.91;99653.88;5069795;28;20085;-30
2022/07/09 07:52:37;;;;;;;6.88;4.65;;;;;;;23.81;63.42;99659.97;5088167;28;20111;-28
2022/07/09 07:55:03;;;;;;;8.10;4.20;;;;;;;23.96;63.84;99667.69;5069855;28;20570;-29
2022/07/09 07:57:29;;;;;;;6.22;4.50;;;;;;;24.02;63.10;99677.31;5087972;28;20123;-31
2022/07/09 07:59:54;;;;;;;7.88;4.47;;;;;;;24.15;63.12;99674.75;5088040;28;20028;-29
2022/07/09 08:02:19;;;;;;;5.93;4.35;;;;;;;24.03;63.39;99676.19;5087680;28;20046;-28
2022/07/09 08:04:45;;;;;;;7.95;4.90;;;;;;;24.09;62.43;99663.25;5088082;28;20035;-29
2022/07/09 08:07:10;;;;;;;7.70;4.40;;;;;;;24.17;61.53;99664.34;5069592;28;20024;-30
2022/07/09 08:09:36;;;;;;;8.43;4.90;;;;;;;23.94;61.42;99674.56;5069245;28;20480;-28
2022/07/09 08:12:01;;;;;;;8.68;4.50;;;;;;;23.88;61.91;99679.38;5087890;28;20035;-30
2022/07/09 08:14:27;;;;;;;6.07;4.30;;;;;;;23.99;60.57;99667.06;5088203;28;20059;-29
2022/07/09 08:16:53;;;;;;;6.82;4.32;;;;;;;24.11;61.09;99673.78;5087740;28;20028;-32
2022/07/09 08:19:18;;;;;;;6.95;5.18;;;;;;;24.14;61.21;99665.00;5087946;28;20703;-30
2022/07/09 08:21:43;;;;;;;7.85;4.57;;;;;;;24.14;60.26;99665.00;5069354;28;20069;-35
2022/07/09 08:24:09;;;;;;;6.82;4.32;;;;;;;24.17;61.49;99672.50;5069642;28;20519;-29
2022/07/09 08:26:34;;;;;;;7.80;4.32;;;;;;;24.10;61.91;99651.22;5087633;28;20028;-30
2022/07/09 08:29:00;;;;;;;5.53;4.50;;;;;;;24.10;60.80;99667.56;5069499;28;20032;-30
2022/07/09 08:31:26;;;;;;;5.50;4.05;;;;;;;24.03;61.10;99654.41;5087111;28;20038;-29
2022/07/09 08:33:51;;;;;;;5.82;4.50;;;;;;;23.96;61.75;99662.25;5069282;28;20039;-29
2022/07/09 08:36:17;;;;;;;6.97;4.43;;;;;;;23.95;61.99;99652.47;5087594;28;20509;-37
2022/07/09 08:38:43;;;;;;;7.40;5.05;;;;;;;24.25;61.45;99663.53;5069192;28;20130;-33
2022/07/09 08:41:09;;;;;;;7.20;4.85;;;;;;;24.33;61.30;99664.69;5087013;28;20074;-31
2022/07/09 08:43:38;;;;;;;6.43;5.00;;;;;;;24.46;60.77;99669.19;5086977;28;20064;-29
2022/07/09 08:46:05;;;;;;;7.47;4.38;;;;;;;24.39;60.84;99642.38;5068944;28;20028;-30
2022/07/09 08:48:35;;;;;;;6.20;4.00;;;;;;;24.11;61.19;99652.00;5062626;28;20039;-29
2022/07/09 08:51:01;;;;;;;7.30;4.65;;;;;;;24.17;60.83;99651.53;5068098;28;20505;-29
2022/07/09 08:53:27;;;;;;;5.97;4.00;;;;;;;24.42;60.82;99665.50;5068390;28;20411;-28
2022/07/09 08:55:54;;;;;;;5.55;4.00;;;;;;;24.37;61.52;99650.09;5068926;28;20028;-33
2022/07/09 08:58:19;;;;;;;5.78;4.05;;;;;;;24.45;60.62;99657.44;5068639;28;20063;-30
2022/07/09 09:00:47;;;;;;;7.15;4.30;;;;;;;24.53;60.54;99649.63;5086829;28;20042;-28
2022/07/09 09:03:13;;;;;;;7.13;4.50;;;;;;;24.50;60.31;99663.88;5068842;28;20077;-29
2022/07/09 09:05:38;;;;;;;6.28;4.30;;;;;;;24.46;60.29;99653.63;5086515;28;20032;-29
2022/07/09 09:08:22;;;;;;;10.68;4.82;;;;;;;24.69;59.25;99667.09;5086954;28;20032;-32
2022/07/09 09:10:47;;;;;;;6.68;4.78;;;;;;;24.50;60.14;99670.16;5086614;28;20056;-28
2022/07/09 09:13:17;;;;;;;10.98;5.90;;;;;;;24.66;60.29;99668.53;5086364;28;20059;-30
2022/07/09 09:15:43;;;;;;;6.88;4.32;;;;;;;24.66;59.93;99663.09;5068351;28;20025;-29
2022/07/09 09:18:10;;;;;;;6.95;4.72;;;;;;;24.74;60.71;99669.63;5087009;28;20020;-37
2022/07/09 09:20:36;;;;;;;7.20;4.85;;;;;;;24.81;60.21;99672.69;5068525;28;20032;-28
2022/07/09 09:23:04;;;;;;;8.48;5.07;;;;;;;24.77;59.62;99652.63;5068727;28;20031;-28
2022/07/09 09:25:30;;;;;;;6.18;4.65;;;;;;;24.86;58.98;99661.59;5068069;28;20085;-28
2022/07/09 09:27:58;;;;;;;6.88;5.35;;;;;;;24.72;60.18;99665.63;5086883;28;20032;-29
2022/07/09 09:30:23;;;;;;;;;;;;;;;25.00;58.79;99671.53;5069006;28;20032;-29
2022/07/09 09:33:03;;;;;;;6.65;4.50;;;;;;;24.69;60.16;99678.00;5068278;28;20280;-32
2022/07/09 09:35:32;;;;;;;6.38;4.55;;;;;;;24.44;60.79;99671.41;5086150;28;20024;-28
2022/07/09 09:37:58;;;;;;;5.95;5.00;;;;;;;24.35;61.58;99668.69;5068267;28;20112;-30
2022/07/09 09:40:24;;;;;;;6.07;4.70;;;;;;;24.37;61.89;99671.88;5067959;28;20430;-30
2022/07/09 09:42:50;;;;;;;7.13;4.40;;;;;;;24.61;60.73;99676.09;5068320;28;20032;-28
2022/07/09 09:45:17;;;;;;;6.75;4.20;;;;;;;24.41;61.39;99672.03;5068143;28;20055;-29
2022/07/09 09:47:48;;;;;;;7.50;4.63;;;;;;;24.35;60.33;99657.78;5067908;28;20028;-30
2022/07/09 09:50:21;;;;;;;7.85;4.68;;;;;;;24.45;61.18;99668.34;5068041;28;20093;-28
2022/07/09 09:52:49;;;;;;;7.85;5.00;;;;;;;24.49;59.71;99665.78;5086549;28;20060;-31
2022/07/09 09:55:17;;;;;;;6.80;4.53;;;;;;;24.53;60.21;99644.19;5068219;28;20548;-32
2022/07/09 09:57:42;;;;;;;8.75;5.55;;;;;;;24.81;58.98;99661.78;5067915;28;20412;-28
2022/07/09 10:00:09;;;;;;;8.88;5.07;;;;;;;24.85;59.44;99670.13;5068118;28;20032;-28
2022/07/09 10:02:35;;;;;;;6.80;4.80;;;;;;;25.09;59.33;99657.84;5086428;28;20845;-28
2022/07/09 10:05:02;;;;;;;6.15;4.72;;;;;;;25.09;57.78;99634.13;5068240;28;20024;-29
2022/07/09 10:07:29;;;;;;;15.77;6.40;;;;;;;25.25;58.81;99662.50;5086527;28;20036;-28
2022/07/09 10:09:59;;;;;;;31.55;12.90;;;;;;;25.48;55.32;99648.59;5068330;28;20020;-29
2022/07/09 10:12:29;;;;;;;71.68;24.08;;;;;;;25.50;55.23;99665.44;5068234;28;20043;-29
2022/07/09 10:14:55;;;;;;;27.35;9.90;;;;;;;25.52;55.57;99659.63;5051453;28;20086;-32
2022/07/09 10:17:24;;;;;;;11.90;6.00;;;;;;;25.20;59.31;99648.97;5067754;28;20040;-34
2022/07/09 10:20:04;;;;;;;36.13;11.85;;;;;;;25.33;57.90;99638.22;5067948;28;20484;-31
2022/07/09 10:22:43;;;;;;;20.88;7.38;;;;;;;25.25;58.23;99648.84;5068168;28;20032;-31
2022/07/09 10:25:11;;;;;;;12.27;6.35;;;;;;;25.15;58.02;99651.09;5087531;28;20081;-31
2022/07/09 10:27:43;;;;;;;11.05;6.40;;;;;;;25.14;59.05;99650.28;5071290;28;20031;-28
2022/07/09 10:30:26;;;;;;;9.07;5.00;;;;;;;25.28;57.87;99652.06;5071252;28;20400;-35
2022/07/09 10:33:07;;;;;;;9.25;5.50;;;;;;;25.41;59.95;99653.75;5089995;28;20028;-29
2022/07/09 10:35:47;;;;;;;10.35;5.50;;;;;;;25.32;60.21;99645.59;5071295;28;20028;-33
2022/07/09 10:38:14;;;;;;;6.60;4.50;;;;;;;25.46;58.89;99648.91;5054710;28;20090;-29
2022/07/09 10:40:39;;;;;;;8.70;5.03;;;;;;;25.36;57.83;99656.66;5070929;28;20408;-28
2022/07/09 10:43:05;;;;;;;6.93;4.90;;;;;;;25.18;59.47;99640.31;5071373;28;20110;-32
2022/07/09 10:45:36;;;;;;;8.35;5.05;;;;;;;25.33;60.71;99651.84;5089464;28;20419;-29
2022/07/09 10:48:04;;;;;;;7.82;4.88;;;;;;;25.40;61.40;99655.69;5071157;28;20085;-28
2022/07/09 10:50:30;;;;;;;;;;;;;;;25.07;62.37;99660.94;5071500;28;20123;-30
2022/07/09 10:52:56;;;;;;;6.05;4.88;;;;;;;25.16;62.09;99656.22;5089229;28;19994;-32
2022/07/09 10:55:26;;;;;;;7.15;5.15;;;;;;;25.33;60.14;99649.13;5089522;28;20032;-28
2022/07/09 10:57:52;;;;;;;6.93;5.35;;;;;;;25.31;59.32;99637.72;5071249;28;20039;-30
2022/07/09 11:00:20;;;;;;;8.10;5.28;;;;;;;25.35;59.87;99650.38;5070882;28;20020;-34
2022/07/09 11:02:53;;;;;;;9.80;5.68;;;;;;;25.32;61.28;99639.34;5071013;28;20048;-29
2022/07/09 11:05:19;;;;;;;7.38;5.53;;;;;;;25.35;60.76;99644.13;5070621;28;20021;-30
2022/07/09 11:07:54;;;;;;;7.25;5.38;;;;;;;25.18;60.75;99643.06;5088972;28;20092;-28
2022/07/09 11:10:20;;;;;;;9.00;5.10;;;;;;;24.97;61.43;99648.44;5089152;28;20170;-32
2022/07/09 11:12:49;;;;;;;9.05;5.80;;;;;;;25.07;61.90;99639.09;5071082;28;20516;-31
2022/07/09 11:15:18;;;;;;;9.82;7.43;;;;;;;25.15;61.87;99641.00;5089251;28;20043;-28
2022/07/09 11:17:44;;;;;;;7.68;5.72;;;;;;;25.30;59.46;99636.94;5070678;28;20028;-30
2022/07/09 11:20:12;;;;;;;8.43;5.35;;;;;;;25.39;60.23;99636.91;5088705;28;20036;-33
2022/07/09 11:22:38;;;;;;;9.43;5.03;;;;;;;25.35;61.10;99617.63;5089283;28;20114;-28
2022/07/09 11:25:04;;;;;;;8.27;4.82;;;;;;;25.67;58.67;99629.03;5088870;28;20107;-28
2022/07/09 11:27:29;;;;;;;6.78;4.78;;;;;;;25.75;56.88;99630.13;5070319;28;20122;-28
2022/07/09 11:30:00;;;;;;;5.93;4.55;;;;;;;25.73;57.71;99622.25;5088757;28;20032;-32